Terminal Aerodrome Forecast
Issued by NWS

Home | Current Version | Previous Version | Text Only | Print | Product List | Glossary On
Versions: 1 2 3 4 5 6 7 8 9 10 11 12 13 14 15 16 17 18 19 20 21 22 23 24 25 26 27 28 29 30 31 32 33 34 35
000
FTUS41 KRNK 222320
TAFBCB
TAF
KBCB 222320Z 2300/2324 VRB03KT P6SM -SHRA SCT040 OVC080
     FM230300 29003KT P6SM SCT030 OVC050
     FM231400 VRB03KT P6SM SCT025 OVC050
     FM231900 08003KT P6SM OVC040=

USA.gov is the U.S. government's official web portal to all federal, state and local government web resources and services.